Time;durP1;ratioP1;P1;durP2;ratioP2;P2;SDS_P1;SDS_P2;PMS_P1;PMS_P2;Temp;Humidity;BMP_temperature;BMP_pressure;BME280_temperature;BME280_humidity;BME280_pressure;Samples;Min_cycle;Max_cycle;Signal;HPM_P1;HPM_P2
2022/07/01 00:00:41;;;;;;;6.53;4.78;;;;;;;16.47;82.47;95555.43;1808258;79;20987;-64
2022/07/01 00:03:08;;;;;;;8.78;4.95;;;;;;;16.50;82.48;95556.63;1808158;79;21003;-64
2022/07/01 00:05:35;;;;;;;6.28;5.12;;;;;;;16.47;81.71;95562.09;1808034;79;21011;-64
2022/07/01 00:08:02;;;;;;;8.45;4.50;;;;;;;16.38;82.05;95548.23;1808292;79;20987;-64
2022/07/01 00:10:29;;;;;;;7.08;5.20;;;;;;;16.43;82.76;95547.58;1807913;79;21011;-64
2022/07/01 00:12:55;;;;;;;6.30;4.78;;;;;;;16.52;82.80;95557.42;1808056;79;20971;-64
2022/07/01 00:15:22;;;;;;;11.83;5.20;;;;;;;16.57;82.53;95552.77;1808150;79;20982;-64
2022/07/01 00:17:49;;;;;;;6.33;4.97;;;;;;;16.51;82.17;95558.37;1808131;79;21019;-64
2022/07/01 00:20:16;;;;;;;6.60;5.10;;;;;;;16.51;82.17;95558.37;1807792;79;20976;-64
2022/07/01 00:22:43;;;;;;;6.33;5.10;;;;;;;16.50;81.79;95549.48;1807889;79;21557;-64
2022/07/01 00:25:10;;;;;;;7.40;4.67;;;;;;;16.55;81.68;95546.64;1808266;79;20940;-64
2022/07/01 00:27:39;;;;;;;5.22;4.75;;;;;;;16.62;82.00;95547.64;1807893;79;21027;-64
2022/07/01 00:30:09;;;;;;;8.85;5.85;;;;;;;16.59;83.54;95550.91;1808051;79;20999;-64
2022/07/01 00:32:36;;;;;;;9.75;5.20;;;;;;;16.61;82.45;95547.72;1808077;79;20952;-64
2022/07/01 00:35:03;;;;;;;10.15;5.22;;;;;;;16.53;82.94;95548.05;1808136;79;21050;-64
2022/07/01 00:37:30;;;;;;;6.20;5.28;;;;;;;16.53;82.65;95538.73;1807798;79;21047;-64
2022/07/01 00:39:56;;;;;;;7.35;5.30;;;;;;;16.53;82.65;95538.73;1808208;79;20976;-64
2022/07/01 00:42:23;;;;;;;7.45;5.50;;;;;;;16.61;82.54;95547.25;1807961;79;20968;-64
2022/07/01 00:44:50;;;;;;;9.55;5.05;;;;;;;16.57;83.52;95547.45;1808546;79;20982;-64
2022/07/01 00:47:17;;;;;;;5.05;4.58;;;;;;;16.57;83.52;95547.45;1807798;79;21023;-64
2022/07/01 00:49:44;;;;;;;13.05;5.58;;;;;;;16.54;84.03;95536.92;1808340;79;20983;-64
2022/07/01 00:52:11;;;;;;;10.23;5.00;;;;;;;16.54;84.03;95536.92;1808431;79;21011;-64
2022/07/01 00:54:40;;;;;;;8.13;5.35;;;;;;;16.49;83.36;95538.45;1808193;79;20947;-64
2022/07/01 00:57:10;;;;;;;7.10;4.62;;;;;;;16.51;83.28;95537.92;1807946;79;21016;-64
2022/07/01 00:59:38;;;;;;;10.25;5.15;;;;;;;16.60;82.84;95541.50;1808418;79;21537;-64
2022/07/01 01:02:07;;;;;;;11.35;4.45;;;;;;;16.54;82.45;95540.92;1808055;79;20988;-64
2022/07/01 01:04:34;;;;;;;9.30;4.97;;;;;;;16.53;81.75;95536.06;1808244;79;21037;-64
2022/07/01 01:07:02;;;;;;;8.10;5.10;;;;;;;16.53;81.75;95536.06;1808027;79;21067;-64
2022/07/01 01:09:33;;;;;;;5.62;5.00;;;;;;;16.53;81.91;95540.50;1808070;79;21063;-64
2022/07/01 01:12:01;;;;;;;6.58;5.00;;;;;;;16.38;82.09;95530.07;1808114;79;20983;-64
2022/07/01 01:14:28;;;;;;;6.22;4.95;;;;;;;16.38;82.09;95530.07;1808155;79;20996;-64
2022/07/01 01:16:55;;;;;;;7.28;5.00;;;;;;;16.44;82.19;95533.31;1808072;79;20980;-64
2022/07/01 01:19:22;;;;;;;8.13;4.80;;;;;;;16.43;82.07;95534.73;1808139;79;21106;-64
2022/07/01 01:21:48;;;;;;;7.40;4.83;;;;;;;16.34;83.09;95539.96;1807938;79;21046;-64
2022/07/01 01:24:15;;;;;;;6.00;5.03;;;;;;;16.31;82.68;95543.23;1808236;79;21066;-64
2022/07/01 01:26:42;;;;;;;9.25;5.65;;;;;;;16.30;83.74;95541.02;1808088;79;21043;-64
2022/07/01 01:29:09;;;;;;;6.03;5.40;;;;;;;16.41;83.62;95541.91;1808386;79;20998;-64
2022/07/01 01:31:35;;;;;;;6.17;5.30;;;;;;;16.44;82.90;95542.64;1808108;79;21066;-64
2022/07/01 01:34:02;;;;;;;10.60;5.47;;;;;;;16.43;82.40;95534.26;1804453;79;21056;-64
2022/07/01 01:36:29;;;;;;;8.38;5.22;;;;;;;16.43;82.40;95534.26;1800346;80;20984;-64
2022/07/01 01:38:59;;;;;;;5.62;4.45;;;;;;;16.36;82.03;95551.42;1800493;79;20936;-64
2022/07/01 01:41:24;;;;;;;5.95;4.83;;;;;;;16.36;82.03;95551.42;1800481;79;21039;-64
2022/07/01 01:43:51;;;;;;;10.15;5.17;;;;;;;16.30;82.05;95554.32;1800173;79;20952;-64
2022/07/01 01:46:18;;;;;;;6.33;5.03;;;;;;;16.25;82.93;95554.98;1800049;80;21612;-64
2022/07/01 01:48:45;;;;;;;5.20;4.70;;;;;;;16.19;82.89;95553.45;1800386;79;20964;-64
2022/07/01 01:51:11;;;;;;;5.87;5.05;;;;;;;16.12;82.78;95551.09;1800387;79;21000;-64
2022/07/01 01:53:38;;;;;;;8.05;5.40;;;;;;;16.13;82.70;95549.72;1800218;80;21019;-64
2022/07/01 01:56:06;;;;;;;9.05;6.00;;;;;;;16.13;82.70;95549.72;1800443;79;21542;-64
2022/07/01 01:58:32;;;;;;;7.97;7.17;;;;;;;16.14;82.93;95554.57;1799941;79;20972;-64
2022/07/01 02:00:59;;;;;;;6.95;6.22;;;;;;;16.26;83.29;95556.73;1800367;79;21078;-64
2022/07/01 02:03:26;;;;;;;11.88;6.17;;;;;;;16.26;82.84;95558.53;1800476;79;21028;-64
2022/07/01 02:05:53;;;;;;;10.10;5.12;;;;;;;16.25;82.68;95558.97;1800531;79;20980;-64
2022/07/01 02:08:20;;;;;;;8.33;5.05;;;;;;;16.28;82.60;95560.20;1800442;79;20968;-64
2022/07/01 02:10:46;;;;;;;8.83;5.97;;;;;;;16.24;82.74;95561.25;1800216;79;21012;-64
2022/07/01 02:13:13;;;;;;;7.37;5.35;;;;;;;16.19;82.36;95562.77;1800301;79;21062;-64
2022/07/01 02:15:40;;;;;;;9.93;6.00;;;;;;;16.19;82.92;95565.89;1800337;79;21482;-64
2022/07/01 02:18:06;;;;;;;6.05;5.45;;;;;;;16.14;83.03;95569.21;1800121;79;21004;-64
2022/07/01 02:20:33;;;;;;;11.70;5.62;;;;;;;16.18;82.94;95575.69;1800260;80;21469;-64
2022/07/01 02:23:00;;;;;;;10.05;5.33;;;;;;;16.22;81.98;95574.61;1800352;79;20968;-64
2022/07/01 02:25:27;;;;;;;6.83;5.47;;;;;;;16.23;82.09;95574.17;1800294;79;21445;-64
2022/07/01 02:27:54;;;;;;;10.13;5.58;;;;;;;16.23;82.09;95574.17;1799847;79;21019;-64
2022/07/01 02:30:21;;;;;;;8.03;5.83;;;;;;;16.19;82.54;95581.87;1799977;79;20980;-64
2022/07/01 02:32:48;;;;;;;7.95;5.30;;;;;;;16.18;82.40;95581.48;1800235;79;20965;-64
2022/07/01 02:35:14;;;;;;;8.68;5.08;;;;;;;16.04;82.21;95586.02;1800246;80;21501;-64
2022/07/01 02:37:41;;;;;;;8.88;5.12;;;;;;;16.04;82.21;95586.02;1800323;79;21489;-64
2022/07/01 02:40:10;;;;;;;7.17;5.22;;;;;;;15.94;82.92;95587.31;1800073;79;20991;-64
2022/07/01 02:42:37;;;;;;;7.15;5.55;;;;;;;15.90;82.43;95591.90;1800245;79;21030;-64
2022/07/01 02:45:05;;;;;;;6.83;5.37;;;;;;;15.87;83.87;95595.98;1800433;80;20968;-64
2022/07/01 02:47:37;;;;;;;9.70;5.20;;;;;;;15.86;83.58;95598.73;1800146;79;21457;-64
2022/07/01 02:50:07;;;;;;;10.03;7.07;;;;;;;15.88;83.72;95603.53;1800521;79;20983;-64
2022/07/01 02:52:35;;;;;;;8.03;5.35;;;;;;;15.98;83.76;95599.11;1800298;80;21010;-64
2022/07/01 02:55:05;;;;;;;9.83;5.33;;;;;;;16.07;83.17;95606.31;1800345;79;20999;-64
2022/07/01 02:57:32;;;;;;;8.98;5.40;;;;;;;16.03;83.47;95606.91;1800096;80;21513;-64
2022/07/01 02:59:59;;;;;;;9.80;5.62;;;;;;;16.03;84.21;95608.69;1779883;80;21863;-64
2022/07/01 03:02:26;;;;;;;8.88;5.95;;;;;;;15.97;84.20;95609.80;1800283;79;21404;-64
2022/07/01 03:04:53;;;;;;;7.85;5.87;;;;;;;15.86;83.66;95612.03;1800545;80;21015;-64
2022/07/01 03:07:21;;;;;;;7.25;5.87;;;;;;;15.89;84.32;95605.25;1800230;79;20988;-64
2022/07/01 03:09:48;;;;;;;8.03;5.22;;;;;;;15.97;84.15;95613.32;1800167;79;20984;-64
2022/07/01 03:12:24;;;;;;;6.45;5.50;;;;;;;16.05;83.74;95614.82;1800288;79;21035;-64
2022/07/01 03:14:58;;;;;;;10.32;5.62;;;;;;;16.08;83.42;95616.05;1800268;79;20983;-64
2022/07/01 03:17:30;;;;;;;9.10;5.45;;;;;;;16.15;83.82;95614.85;1800315;79;21015;-64
2022/07/01 03:19:58;;;;;;;9.65;6.10;;;;;;;16.23;83.65;95616.77;1800366;80;21039;-64
2022/07/01 03:22:28;;;;;;;7.10;5.70;;;;;;;16.30;83.36;95622.22;1799931;80;21125;-64
2022/07/01 03:24:56;;;;;;;9.53;5.70;;;;;;;16.35;84.27;95629.55;1800219;79;21042;-64
2022/07/01 03:27:25;;;;;;;5.80;5.20;;;;;;;16.35;84.27;95629.55;1800049;79;21020;-64
2022/07/01 03:29:52;;;;;;;6.30;5.70;;;;;;;16.36;83.30;95631.78;1800112;80;21010;-64
2022/07/01 03:32:19;;;;;;;9.45;5.45;;;;;;;16.35;84.16;95636.68;1800221;79;20955;-64
2022/07/01 03:34:49;;;;;;;5.83;5.22;;;;;;;16.36;83.71;95638.44;1804533;79;20995;-64
2022/07/01 03:37:17;;;;;;;6.72;5.30;;;;;;;16.36;83.72;95638.44;1808141;79;21003;-64
2022/07/01 03:39:45;;;;;;;7.70;5.35;;;;;;;16.33;83.81;95630.55;1808166;79;21007;-64
2022/07/01 03:42:11;;;;;;;12.55;5.60;;;;;;;16.43;84.01;95635.93;1807782;79;20976;-64
2022/07/01 03:44:39;;;;;;;8.45;5.58;;;;;;;16.57;84.32;95638.87;1807944;79;21434;-64
2022/07/01 03:47:07;;;;;;;11.85;5.92;;;;;;;16.65;83.63;95638.55;1808264;79;21050;-64
2022/07/01 03:49:35;;;;;;;6.87;5.20;;;;;;;16.73;84.23;95643.55;1807854;79;20984;-64
2022/07/01 03:52:04;;;;;;;9.05;5.72;;;;;;;16.77;83.28;95639.84;1808287;79;21500;-64
2022/07/01 03:54:32;;;;;;;11.45;7.28;;;;;;;16.88;83.79;95641.61;1807816;79;21062;-64
2022/07/01 03:57:05;;;;;;;10.18;6.65;;;;;;;17.02;84.17;95639.22;1808115;79;20952;-64
2022/07/01 03:59:37;;;;;;;6.47;5.87;;;;;;;17.20;83.85;95641.55;1808093;79;20992;-64
2022/07/01 04:02:05;;;;;;;6.65;5.95;;;;;;;17.26;82.64;95637.30;1808373;79;20984;-64
2022/07/01 04:04:34;;;;;;;7.78;5.80;;;;;;;17.34;82.52;95638.73;1807807;79;21454;-64
2022/07/01 04:07:02;;;;;;;6.95;5.92;;;;;;;17.40;82.43;95638.48;1808059;79;20967;-64
2022/07/01 04:09:31;;;;;;;7.95;6.53;;;;;;;17.43;82.08;95639.20;1807911;79;21493;-64
2022/07/01 04:11:58;;;;;;;8.30;6.28;;;;;;;17.57;82.13;95639.06;1808117;79;21008;-64
2022/07/01 04:14:25;;;;;;;9.35;6.30;;;;;;;17.71;82.10;95635.28;1807920;79;20984;-64
2022/07/01 04:16:53;;;;;;;8.63;6.42;;;;;;;17.80;81.67;95632.23;1808185;79;20972;-64
2022/07/01 04:19:20;;;;;;;10.75;6.45;;;;;;;17.91;81.64;95635.72;1808046;79;21041;-64
2022/07/01 04:24:33;;;;;;;9.00;6.45;;;;;;;18.00;81.61;95629.96;1807525;79;20976;-64
2022/07/01 04:27:00;;;;;;;7.83;6.30;;;;;;;18.12;81.71;95633.39;1807955;79;21481;-64
2022/07/01 04:29:29;;;;;;;7.75;5.83;;;;;;;18.26;81.99;95626.03;1807613;79;21517;-64
2022/07/01 04:31:57;;;;;;;7.40;6.45;;;;;;;18.36;81.52;95627.80;1807993;79;21026;-64
2022/07/01 04:34:25;;;;;;;7.17;6.10;;;;;;;18.53;82.09;95621.63;1807993;79;21091;-64
2022/07/01 04:36:52;;;;;;;9.63;6.80;;;;;;;18.64;81.75;95622.43;1808208;79;20984;-64
2022/07/01 04:39:19;;;;;;;7.40;6.55;;;;;;;18.78;81.76;95625.31;1808044;79;21056;-64
2022/07/01 04:42:01;;;;;;;11.55;7.03;;;;;;;18.85;80.73;95629.42;1807734;79;21549;-64
2022/07/01 04:44:37;;;;;;;8.60;6.30;;;;;;;18.99;80.83;95634.05;1807789;79;21478;-64
2022/07/01 04:47:05;;;;;;;8.73;6.55;;;;;;;19.19;81.32;95625.00;1807895;79;21023;-64
2022/07/01 04:49:32;;;;;;;7.45;6.35;;;;;;;19.33;80.92;95620.28;1808123;79;21485;-64
2022/07/01 04:51:59;;;;;;;7.87;6.47;;;;;;;19.43;80.58;95617.51;1808122;79;21517;-64
2022/07/01 04:54:26;;;;;;;11.40;6.87;;;;;;;19.54;80.49;95618.27;1808065;79;21540;-64
2022/07/01 04:56:52;;;;;;;9.78;6.42;;;;;;;19.66;80.54;95624.30;1808242;79;21478;-64
2022/07/01 04:59:19;;;;;;;8.80;6.22;;;;;;;19.80;80.49;95624.91;1807656;79;21087;-64
2022/07/01 05:01:50;;;;;;;10.50;6.58;;;;;;;19.92;79.79;95624.73;1807880;79;21481;-64
2022/07/01 05:04:19;;;;;;;13.53;6.58;;;;;;;20.03;79.57;95623.64;1808158;79;21007;-64
2022/07/01 05:06:46;;;;;;;16.00;6.72;;;;;;;20.14;78.56;95623.92;1807868;79;21071;-64
2022/07/01 05:09:13;;;;;;;10.18;6.70;;;;;;;20.24;78.53;95629.64;1808006;79;21003;-64
2022/07/01 05:11:40;;;;;;;12.80;7.30;;;;;;;20.36;78.36;95621.36;1807792;79;21008;-64
2022/07/01 05:14:08;;;;;;;12.30;7.08;;;;;;;20.47;78.06;95624.31;1807581;79;21015;-64
2022/07/01 05:16:35;;;;;;;15.78;7.33;;;;;;;20.60;77.99;95623.16;1808130;79;21003;-64
2022/07/01 05:21:58;;;;;;;16.80;8.25;;;;;;;20.86;76.93;95622.98;1807718;79;21015;-64
2022/07/01 05:24:30;;;;;;;9.10;7.53;;;;;;;20.92;77.12;95618.13;1807788;79;20976;-64
2022/07/01 05:26:58;;;;;;;12.00;8.35;;;;;;;21.02;76.89;95617.11;1808115;79;21489;-64
2022/07/01 05:29:26;;;;;;;11.18;8.13;;;;;;;21.09;76.68;95618.92;1807902;79;21015;-64
2022/07/01 05:31:52;;;;;;;14.15;8.08;;;;;;;21.12;76.48;95622.31;1808145;79;21031;-64
2022/07/01 05:34:19;;;;;;;13.72;7.83;;;;;;;21.24;76.31;95621.17;1807053;79;21023;-64
2022/07/01 05:36:46;;;;;;;8.48;7.47;;;;;;;21.27;74.03;95624.55;1800289;80;21016;-64
2022/07/01 05:39:14;;;;;;;11.50;7.55;;;;;;;21.34;74.82;95621.89;1800253;79;21493;-64
2022/07/01 05:41:40;;;;;;;11.55;8.03;;;;;;;21.49;74.74;95626.80;1800399;80;20944;-64
2022/07/01 05:44:07;;;;;;;10.98;7.62;;;;;;;21.60;74.35;95623.48;1800250;79;21592;-64
2022/07/01 05:46:34;;;;;;;14.20;7.90;;;;;;;21.70;74.65;95628.66;1800339;79;21034;-64
2022/07/01 05:49:00;;;;;;;11.85;7.40;;;;;;;21.78;74.47;95627.70;1800163;80;20972;-64
2022/07/01 05:51:27;;;;;;;15.45;7.75;;;;;;;21.91;74.64;95622.91;1800482;79;21044;-64
2022/07/01 05:53:56;;;;;;;9.63;6.87;;;;;;;22.04;74.64;95618.48;1800433;79;21482;-64
2022/07/01 05:56:23;;;;;;;12.78;7.45;;;;;;;22.14;74.46;95626.33;1800317;80;21434;-64
2022/07/01 05:58:49;;;;;;;8.08;7.03;;;;;;;22.25;73.65;95622.98;1799927;79;21119;-64
2022/07/01 06:01:16;;;;;;;9.68;6.35;;;;;;;22.38;72.24;95627.11;1800205;80;21012;-64
2022/07/01 06:03:43;;;;;;;12.25;6.47;;;;;;;22.47;70.53;95624.66;1799837;79;21050;-64
2022/07/01 06:06:10;;;;;;;9.03;6.30;;;;;;;22.62;71.88;95621.45;1800323;79;21035;-64
2022/07/01 06:08:37;;;;;;;16.27;6.80;;;;;;;22.79;69.56;95619.49;1800345;79;21545;-64
2022/07/01 06:11:03;;;;;;;9.75;6.42;;;;;;;22.95;70.54;95624.20;1799878;79;21043;-64
2022/07/01 06:13:30;;;;;;;9.58;6.55;;;;;;;23.15;70.38;95631.46;1800265;79;20968;-64
2022/07/01 06:15:58;;;;;;;13.40;7.40;;;;;;;23.30;69.73;95633.11;1799993;80;21051;-64
2022/07/01 06:18:25;;;;;;;14.05;7.97;;;;;;;23.50;69.71;95635.78;1800448;79;21426;-64
2022/07/01 06:20:52;;;;;;;14.53;7.85;;;;;;;23.68;69.14;95629.09;1800575;79;21027;-64
2022/07/01 06:23:19;;;;;;;10.08;7.65;;;;;;;23.87;68.16;95626.52;1800231;79;20988;-64
2022/07/01 06:25:45;;;;;;;17.65;7.67;;;;;;;23.99;67.83;95624.30;1800300;79;21016;-64
2022/07/01 06:28:13;;;;;;;12.15;7.22;;;;;;;24.14;66.47;95622.30;1800368;80;20929;-64
2022/07/01 06:30:43;;;;;;;10.68;7.00;;;;;;;24.26;65.94;95620.56;1799732;79;21012;-64
2022/07/01 06:33:11;;;;;;;11.10;7.47;;;;;;;24.39;63.83;95618.23;1800101;79;21006;-64
2022/07/01 06:35:38;;;;;;;12.40;6.95;;;;;;;24.51;64.48;95623.23;1804901;79;21063;-64
2022/07/01 06:38:05;;;;;;;16.42;6.78;;;;;;;24.65;64.89;95618.17;1808142;79;21027;-64
2022/07/01 06:40:32;;;;;;;15.28;7.30;;;;;;;24.82;65.08;95620.48;1808490;79;21019;-65
2022/07/01 06:42:59;;;;;;;18.32;7.45;;;;;;;24.97;64.71;95617.59;1808180;79;21505;-64
2022/07/01 06:45:26;;;;;;;10.00;7.00;;;;;;;25.10;64.34;95614.82;1807787;79;21042;-64
2022/07/01 06:47:53;;;;;;;15.43;7.17;;;;;;;25.22;63.69;95610.76;1808092;79;21054;-65
2022/07/01 06:50:20;;;;;;;15.40;7.60;;;;;;;25.37;64.05;95606.48;1808227;79;20952;-64
2022/07/01 06:52:47;;;;;;;11.50;6.60;;;;;;;25.51;63.67;95606.78;1807737;79;21007;-65
2022/07/01 06:55:14;;;;;;;9.75;6.85;;;;;;;25.65;63.69;95611.48;1808280;79;20966;-65
2022/07/01 06:57:40;;;;;;;11.18;7.35;;;;;;;25.80;63.67;95606.69;1808432;79;20992;-65
2022/07/01 07:00:09;;;;;;;12.68;6.65;;;;;;;25.94;63.08;95613.75;1807867;79;21063;-65
2022/07/01 07:02:36;;;;;;;11.30;6.70;;;;;;;26.07;63.19;95606.38;1808197;79;20987;-65
2022/07/01 07:05:03;;;;;;;9.85;6.65;;;;;;;26.21;63.44;95601.72;1808055;79;21086;-65
2022/07/01 07:07:30;;;;;;;20.27;6.70;;;;;;;26.37;63.52;95602.19;1808139;79;21535;-65
2022/07/01 07:09:56;;;;;;;11.12;5.67;;;;;;;26.53;63.19;95603.17;1807843;79;20988;-65
2022/07/01 07:12:23;;;;;;;14.47;6.10;;;;;;;26.68;61.44;95602.41;1807904;79;21018;-65
2022/07/01 07:14:49;;;;;;;13.78;5.03;;;;;;;26.81;60.89;95607.16;1808080;79;21476;-65
2022/07/01 07:17:16;;;;;;;16.32;4.80;;;;;;;26.92;56.62;95603.08;1808247;79;20987;-65
2022/07/01 07:19:43;;;;;;;10.58;5.10;;;;;;;27.08;56.15;95601.28;1807721;79;21019;-65
2022/07/01 07:22:10;;;;;;;13.28;5.17;;;;;;;27.23;54.52;95606.44;1777065;79;21545;-65
2022/07/01 07:24:37;;;;;;;11.97;5.12;;;;;;;27.41;55.01;95600.80;1807895;79;21091;-65
2022/07/01 07:27:04;;;;;;;13.35;4.70;;;;;;;27.54;53.24;95604.66;1807933;79;21035;-65
2022/07/01 07:29:31;;;;;;;12.07;5.00;;;;;;;27.69;52.16;95602.48;1807970;79;21497;-65
2022/07/01 07:31:58;;;;;;;10.75;4.78;;;;;;;27.81;51.26;95597.35;1808166;79;20995;-65
2022/07/01 07:34:24;;;;;;;7.58;4.20;;;;;;;27.99;52.75;95590.34;1807880;79;21007;-65
2022/07/01 07:36:51;;;;;;;11.18;4.25;;;;;;;28.12;51.04;95592.82;1805320;79;21084;-65
2022/07/01 07:39:18;;;;;;;14.87;4.40;;;;;;;28.24;50.39;95592.23;1805685;79;20960;-65
2022/07/01 07:41:45;;;;;;;17.73;4.30;;;;;;;28.35;48.33;95591.27;1805536;79;21059;-65
2022/07/01 07:44:11;;;;;;;8.10;3.67;;;;;;;28.45;47.74;95593.55;1805632;79;20971;-65
2022/07/01 07:46:38;;;;;;;8.65;4.00;;;;;;;28.58;46.51;95586.03;1805561;79;21461;-65
2022/07/01 07:49:05;;;;;;;10.80;4.10;;;;;;;28.73;46.15;95589.69;1805523;79;21485;-65
2022/07/01 07:51:32;;;;;;;13.10;4.05;;;;;;;28.83;44.91;95590.59;1805601;79;20956;-65
2022/07/01 07:54:00;;;;;;;17.62;4.72;;;;;;;28.94;44.54;95585.02;1805561;79;20980;-65
2022/07/01 07:56:27;;;;;;;8.90;4.10;;;;;;;29.05;43.49;95592.17;1805490;79;21497;-65
2022/07/01 07:58:53;;;;;;;10.13;4.40;;;;;;;29.16;44.03;95592.08;1805469;79;21010;-65
2022/07/01 08:01:20;;;;;;;8.08;4.10;;;;;;;29.23;43.20;95594.59;1805177;79;21051;-65
2022/07/01 08:03:47;;;;;;;11.45;4.25;;;;;;;29.32;41.70;95592.86;1805668;79;20959;-65
2022/07/01 08:06:14;;;;;;;18.77;4.53;;;;;;;29.44;42.61;95589.50;1805505;79;21173;-65
2022/07/01 08:08:41;;;;;;;11.35;3.77;;;;;;;29.54;39.84;95595.78;1805521;79;20971;-65
2022/07/01 08:11:07;;;;;;;11.90;4.28;;;;;;;29.62;39.46;95590.47;1805623;79;21043;-65
2022/07/01 08:13:34;;;;;;;11.45;4.20;;;;;;;29.76;40.31;95595.50;1805261;79;21110;-65
2022/07/01 08:16:01;;;;;;;9.03;3.52;;;;;;;29.90;42.15;95596.88;1805272;79;20992;-65
2022/07/01 08:18:28;;;;;;;10.58;4.15;;;;;;;30.05;39.68;95592.34;1805496;79;21119;-65
2022/07/01 08:20:55;;;;;;;7.92;3.60;;;;;;;30.15;39.61;95596.73;1805374;79;21020;-65
2022/07/01 08:23:23;;;;;;;9.48;3.87;;;;;;;30.24;39.81;95599.56;1805341;79;21014;-65
2022/07/01 08:25:51;;;;;;;11.25;3.58;;;;;;;30.36;39.88;95599.77;1805513;79;21022;-65
2022/07/01 08:28:18;;;;;;;13.20;4.10;;;;;;;30.53;40.94;95598.11;1805587;79;21001;-65
2022/07/01 08:30:45;;;;;;;11.08;4.25;;;;;;;30.64;39.04;95601.98;1805577;79;20999;-65
2022/07/01 08:33:12;;;;;;;7.25;3.50;;;;;;;30.75;39.02;95604.52;1805452;79;20979;-65
2022/07/01 08:35:40;;;;;;;9.78;3.40;;;;;;;30.88;38.66;95603.33;1806188;79;21100;-65
2022/07/01 08:38:07;;;;;;;8.45;3.70;;;;;;;30.93;37.46;95603.72;1807599;79;21082;-65
2022/07/01 08:40:34;;;;;;;10.48;3.90;;;;;;;31.05;38.45;95599.77;1808145;79;20975;-65
2022/07/01 08:43:04;;;;;;;10.58;3.52;;;;;;;31.13;37.96;95602.58;1808321;79;21500;-65
2022/07/01 08:45:38;;;;;;;9.35;3.45;;;;;;;31.22;37.98;95603.50;1807885;79;20999;-65
2022/07/01 08:48:06;;;;;;;7.87;3.42;;;;;;;31.32;36.99;95598.82;1808168;79;21022;-65
2022/07/01 08:50:40;;;;;;;12.93;3.65;;;;;;;31.41;35.96;95600.66;1807786;79;21006;-65
2022/07/01 08:53:10;;;;;;;8.10;3.10;;;;;;;31.53;36.87;95599.06;1808171;79;21015;-65
2022/07/01 08:58:25;;;;;;;8.03;3.22;;;;;;;31.74;34.94;95594.63;1807966;79;20956;-65
2022/07/01 09:00:53;;;;;;;8.10;3.30;;;;;;;31.93;35.47;95597.16;1808154;79;21464;-65
2022/07/01 09:03:23;;;;;;;8.05;2.95;;;;;;;32.11;36.15;95588.95;1808189;79;21003;-65
2022/07/01 09:05:54;;;;;;;8.43;2.83;;;;;;;32.25;33.81;95582.02;1808212;79;20991;-65
2022/07/01 09:08:22;;;;;;;6.80;2.95;;;;;;;32.27;32.80;95587.66;1808621;79;21026;-65
2022/07/01 09:10:49;;;;;;;11.80;3.12;;;;;;;32.32;32.70;95591.27;1777063;79;21573;-65
2022/07/01 09:13:16;;;;;;;9.55;2.85;;;;;;;32.49;33.28;95593.62;1807950;79;21035;-65
2022/07/01 09:15:43;;;;;;;10.80;2.98;;;;;;;32.56;32.15;95583.75;1808167;79;20995;-65
2022/07/01 09:18:15;;;;;;;14.13;2.83;;;;;;;32.64;30.68;95591.97;1808285;79;21550;-65
2022/07/01 09:20:49;;;;;;;7.83;3.00;;;;;;;32.79;32.09;95586.73;1807764;79;21058;-65
2022/07/01 09:23:19;;;;;;;9.45;3.10;;;;;;;33.01;32.47;95585.23;1808323;79;21035;-65
2022/07/01 09:25:51;;;;;;;6.80;2.80;;;;;;;33.26;31.79;95594.89;1808147;79;21466;-65
2022/07/01 09:28:21;;;;;;;9.55;2.90;;;;;;;33.32;30.59;95584.14;1808395;79;21015;-65
2022/07/01 09:30:54;;;;;;;9.60;2.70;;;;;;;33.42;31.08;95585.36;1808098;79;20976;-65
2022/07/01 09:33:29;;;;;;;9.93;3.10;;;;;;;33.50;29.73;95585.88;1808215;79;21034;-65
2022/07/01 09:35:57;;;;;;;8.95;2.83;;;;;;;33.61;29.97;95582.81;1807197;79;21047;-65
2022/07/01 09:38:25;;;;;;;8.33;3.60;;;;;;;33.75;29.38;95577.19;1804988;79;20991;-65
2022/07/01 09:41:06;;;;;;;10.08;3.33;;;;;;;33.90;30.19;95585.55;1805656;79;21465;-65
2022/07/01 09:43:35;;;;;;;8.93;2.90;;;;;;;33.96;27.29;95584.33;1805748;79;21034;-65
2022/07/01 09:46:12;;;;;;;5.58;2.90;;;;;;;33.98;28.93;95577.33;1785182;79;20999;-65
2022/07/01 09:48:43;;;;;;;6.10;3.08;;;;;;;33.99;27.73;95568.92;1805606;79;21481;-65
2022/07/01 09:51:12;;;;;;;11.40;3.13;;;;;;;34.17;28.48;95566.03;1806025;79;21414;-65
2022/07/01 09:53:39;;;;;;;9.45;3.30;;;;;;;34.31;27.03;95561.70;1805324;79;21188;-65
2022/07/01 09:56:06;;;;;;;9.45;3.05;;;;;;;34.52;28.87;95569.31;1805874;79;20952;-65
2022/07/01 09:58:33;;;;;;;5.22;2.95;;;;;;;34.65;27.67;95564.17;1805892;79;20980;-65
2022/07/01 10:01:00;;;;;;;7.12;3.00;;;;;;;34.67;25.90;95566.20;1805395;79;21477;-65
2022/07/01 10:03:27;;;;;;;7.85;3.35;;;;;;;34.54;26.72;95560.93;1805688;79;21007;-65
2022/07/01 10:06:15;;;;;;;13.70;3.42;;;;;;;34.60;26.72;95556.13;1805924;79;20980;-65
2022/07/01 10:09:26;;;;;;;6.97;2.90;;;;;;;34.75;26.98;95548.89;1805450;79;21094;-65
2022/07/01 10:12:14;;;;;;;11.70;3.47;;;;;;;35.13;27.28;95553.16;1805443;79;20976;-65
2022/07/01 10:14:43;;;;;;;6.35;3.17;;;;;;;35.23;27.20;95550.14;1804576;79;21095;-65
2022/07/01 10:17:09;;;;;;;9.83;3.65;;;;;;;34.65;25.58;95546.86;1805701;79;20960;-65
2022/07/01 10:19:36;;;;;;;9.03;3.20;;;;;;;34.13;26.47;95543.28;1805359;79;21031;-65
2022/07/01 10:22:27;;;;;;;4.72;2.85;;;;;;;33.68;26.17;95551.53;1805612;79;21025;-65
2022/07/01 10:24:56;;;;;;;6.23;3.30;;;;;;;33.33;27.48;95552.18;1805152;79;21071;-65
2022/07/01 10:27:25;;;;;;;6.95;3.02;;;;;;;32.91;32.52;95558.08;1805711;79;20998;-65
2022/07/01 10:30:13;;;;;;;8.85;4.00;;;;;;;32.62;31.17;95554.39;1805577;79;20999;-65
2022/07/01 10:32:48;;;;;;;10.98;4.08;;;;;;;32.33;29.56;95554.74;1771802;79;21007;-65
2022/07/01 10:35:16;;;;;;;4.50;2.98;;;;;;;31.98;34.95;95556.63;1805618;79;21003;-65
2022/07/01 10:38:01;;;;;;;6.35;3.00;;;;;;;31.71;36.16;95567.16;1807715;79;20976;-65
2022/07/01 10:40:46;;;;;;;8.58;3.40;;;;;;;31.52;36.49;95561.88;1808065;79;21027;-65
2022/07/01 10:43:34;;;;;;;7.28;3.17;;;;;;;31.11;41.02;95564.23;1808058;79;21004;-65
2022/07/01 10:46:02;;;;;;;10.05;3.30;;;;;;;30.75;41.88;95559.58;1807827;79;21003;-65
2022/07/01 10:48:33;;;;;;;13.00;3.60;;;;;;;30.53;38.86;95556.76;1808100;79;20999;-65
2022/07/01 10:51:01;;;;;;;11.20;3.65;;;;;;;30.47;40.58;95551.09;1808272;79;21524;-65
2022/07/01 10:53:47;;;;;;;6.97;3.72;;;;;;;30.33;42.80;95556.52;1808283;79;21004;-65
2022/07/01 10:56:18;;;;;;;10.88;3.30;;;;;;;30.18;46.36;95557.48;1808229;79;21541;-65
2022/07/01 10:58:45;;;;;;;13.13;3.97;;;;;;;29.87;47.04;95559.10;1803423;79;21050;-65
2022/07/01 11:01:11;;;;;;;8.68;3.47;;;;;;;29.62;47.84;95561.92;1808130;79;21015;-65
2022/07/01 11:03:39;;;;;;;12.80;4.12;;;;;;;29.44;49.18;95559.60;1808295;79;20991;-65
2022/07/01 11:06:07;;;;;;;7.25;3.52;;;;;;;29.26;48.77;95550.82;1808144;79;21465;-65
2022/07/01 11:08:34;;;;;;;9.15;4.42;;;;;;;29.21;48.77;95553.11;1808203;79;21035;-65
2022/07/01 11:11:04;;;;;;;17.23;5.70;;;;;;;29.12;50.15;95560.25;1807949;79;21011;-65
2022/07/01 11:13:31;;;;;;;12.00;6.30;;;;;;;29.04;50.13;95554.64;1808293;79;21003;-65
2022/07/01 11:16:00;;;;;;;11.30;5.15;;;;;;;29.00;51.30;95566.78;1807702;79;21085;-65
2022/07/01 11:18:28;;;;;;;8.10;4.87;;;;;;;28.96;53.11;95567.23;1808125;79;21046;-65
2022/07/01 11:21:04;;;;;;;15.58;7.60;;;;;;;28.89;52.41;95561.00;1808141;79;21023;-65
2022/07/01 11:23:30;;;;;;;9.85;4.80;;;;;;;28.84;52.84;95565.14;1808240;79;21489;-65
2022/07/01 11:25:57;;;;;;;10.58;5.33;;;;;;;28.85;46.74;95569.09;1807630;79;21059;-65
2022/07/01 11:28:24;;;;;;;17.00;6.33;;;;;;;28.95;48.72;95569.58;1808158;79;21592;-65
2022/07/01 11:31:00;;;;;;;20.62;7.55;;;;;;;28.93;50.24;95568.85;1807450;79;22093;-65
2022/07/01 11:33:28;;;;;;;9.10;4.78;;;;;;;28.89;47.95;95567.78;1808403;79;21022;-65
2022/07/01 11:41:30;;;;;;;8.20;4.30;;;;;;;29.09;47.54;95551.54;1807970;79;21039;-65
2022/07/01 11:43:57;;;;;;;10.35;4.42;;;;;;;29.12;50.30;95554.81;1808196;79;21067;-65
2022/07/01 11:46:23;;;;;;;10.25;4.20;;;;;;;29.24;49.40;95551.97;1808005;79;21003;-65
2022/07/01 11:48:53;;;;;;;13.93;4.42;;;;;;;29.42;48.90;95550.73;1807788;79;20956;-65